Milburn, KY (42070)

9:45 AM CDT on July 27, 2016 (GMT -0500)
Reddick Farms | | Change Station

Elev 400 ft 36.83 °N, 88.92 °W | Updated 42 minutes ago

Mostly Cloudy
Mostly Cloudy
84.5 °F
Feels Like 99 °F
N
2.0
Wind Variable Wind from SSW
Gusts 5.0 mph

Today
High -- | Low -- °F
--% Chance of Precip.
Yesterday
High -- | Low -- °F
Precip. -- in
Pressure 30.00 in
Visibility 10.0 miles
Clouds Mostly Cloudy 1000 ft
Heat Index 99 °F
Dew Point 80 °F
Humidity 88%
Rainfall 0.00 in
Snow Depth Not available.
5:57 AM 8:06 PM
Last Quarter, 42% visible
METAR KM25 271435Z AUTO 14003KT 10SM BKN010 28/25 A3000 RMK AO2 PWINO
Pressure 30.00 in
Visibility 10.0 miles
Clouds Mostly Cloudy 1000 ft
Heat Index 99 °F
Dew Point 80 °F
Humidity 88%
Rainfall 0.00 in
Snow Depth Not available.
5:57 AM 8:06 PM
Last Quarter, 42% visible
METAR KM25 271435Z AUTO 14003KT 10SM BKN010 28/25 A3000 RMK AO2 PWINO

10-Day Weather Forecast

Almanac

Astronomy

Jul. 27, 2016 Rise Set
Actual Time
Civil Twilight
Nautical Twilight
Astronomical Twilight
Moon
Length of Visible Light
Length of Day
Tomorrow will be .
, % of the Moon is Illuminated

Today's Extremes

State Highs State Lows

Community

WunderPhotos

Upload Photos

1,927,847 photos uploaded!

WunderBlog® & News

Nearby

Air Quality

  Air Quality AQ Index Pollutant
Not available.

Snow Depth

Station Depth Elevation

Earthquake Activity

City Distance Mag. Time & Date
Minimum magnitude displayed is 2.5.

Coastal Water Temperatures

Place Temperature

Stations

Nearby Weather Stations

Station Location Temp. Windchill Dew Point Humidity Wind Precip. Elev Updated Type
                   

Watches & Warnings

There are currently no watches in effect.